Data for 07/08/2017

Time Sea-Level Adjusted Pressure Absolute Pressure Temperature Relative Humidity Dew Point   
(mb) (inHg) (mb) (inHg) (C) (F) (%) (C) (F)
00:05 1024 30.24 853 25.19 21.4 70.5 38 6.5 43.6
00:10 1024 30.24 853 25.19 21.5 70.6 37 6.5 43.8
00:15 1024 30.24 853 25.19 21.3 70.3 38 6.7 44
00:20 1024 30.24 853 25.19 21.1 69.9 38 6.5 43.7
00:25 1024 30.24 853 25.19 21 69.8 39 6.5 43.7
00:30 1024 30.24 853 25.19 21 69.8 37 6.1 43
00:35 1024 30.24 853 25.19 21.3 70.3 36 5.8 42.5
00:40 1024 30.24 853 25.19 21.5 70.8 35 5.5 42
00:45 1024 30.24 854 25.22 21.7 71 36 6.1 42.9
00:50 1024 30.24 854 25.22 21.3 70.3 38 6.4 43.6
00:55 1024 30.24 854 25.22 20.9 69.6 39 6.7 44
01:00 1024 30.24 853 25.19 20.7 69.2 39 6.3 43.4
01:05 1024 30.24 854 25.22 20.6 69.1 39 6.5 43.7
01:10 1024 30.24 854 25.22 20.5 68.8 40 6.4 43.6
01:15 1024 30.24 854 25.22 20.5 68.9 39 6.4 43.5
01:20 1024 30.24 854 25.22 20.4 68.8 39 6.2 43.2
01:25 1024 30.24 854 25.22 20.5 68.8 39 6.1 43
01:30 1024 30.24 854 25.22 20.5 68.9 39 6.4 43.5
01:35 1024 30.24 854 25.22 20.4 68.7 39 6.2 43.2
01:40 1024 30.24 854 25.22 20.4 68.7 39 6.2 43.1
01:45 1024 30.24 853 25.19 20.3 68.6 39 6.2 43.2
01:50 1024 30.24 853 25.19 20.1 68.2 41 6.5 43.8
01:55 1024 30.24 854 25.22 19.9 67.8 41 6.3 43.4
02:00 1024 30.24 853 25.19 20.2 68.3 40 6.4 43.4
02:05 1024 30.24 853 25.19 20 67.9 41 6.4 43.5
02:10 1024 30.24 853 25.19 19.8 67.6 41 6.3 43.4
02:15 1024 30.24 853 25.19 19.6 67.3 42 6.6 43.8
02:20 1024 30.24 853 25.19 19.3 66.8 42 6.4 43.4
02:25 1024 30.24 853 25.19 19.4 66.8 42 6.4 43.5
02:30 1024 30.24 853 25.19 19.4 67 42 6.3 43.3
02:35 1024 30.24 853 25.19 19.3 66.7 42 6.3 43.3
02:40 1024 30.24 853 25.19 19.1 66.3 43 6.4 43.6
02:45 1024 30.24 853 25.19 18.7 65.7 44 6.3 43.3
02:50 1024 30.24 853 25.19 18.9 66 43 6.2 43.1
02:55 1024 30.24 853 25.19 19.1 66.5 43 6.3 43.3
03:00 1024 30.24 853 25.19 19 66.1 43 6.2 43.1
03:05 1024 30.24 853 25.19 19 66.2 44 6.4 43.6
03:10 1024 30.24 853 25.19 18.8 65.8 44 6.5 43.6
03:15 1024 30.24 853 25.19 18.8 65.8 43 5.9 42.7
03:20 1024 30.24 853 25.19 19.2 66.5 42 6.1 43
03:25 1024 30.24 853 25.19 19 66.2 43 6.3 43.4
03:30 1024 30.24 853 25.19 18.9 66 44 6.5 43.7
03:35 1024 30.24 853 25.19 18.9 66 42 5.9 42.6
03:40 1024 30.24 853 25.19 19.3 66.7 42 6.2 43.2
03:45 1024 30.24 853 25.19 19.3 66.7 42 6.2 43.2
03:50 1024 30.24 853 25.19 19.2 66.5 42 6.1 42.9
03:55 1024 30.24 853 25.19 19.2 66.6 42 6.1 43
04:00 1024 30.24 853 25.19 19.2 66.6 41 5.8 42.5
04:05 1024 30.24 853 25.19 19.4 67 42 6.2 43.1
04:10 1024 30.24 853 25.19 19.3 66.8 40 5.7 42.2
04:15 1024 30.24 853 25.19 19.6 67.3 41 6.2 43.1
04:20 1024 30.24 853 25.19 19.2 66.6 41 5.9 42.6
04:25 1024 30.24 853 25.19 19.5 67 41 5.9 42.7
04:30 1024 30.24 853 25.19 19.2 66.6 42 6.1 43
04:35 1024 30.24 853 25.19 19.1 66.4 42 5.9 42.6
04:40 1024 30.24 853 25.19 19.1 66.4 42 6 42.9
04:45 1024 30.24 853 25.19 19.1 66.4 42 5.9 42.6
04:50 1024 30.24 854 25.22 19.2 66.5 41 5.9 42.6
04:55 1024 30.24 854 25.22 19.3 66.8 41 5.9 42.7
05:00 1024 30.24 854 25.22 19.1 66.4 42 6 42.8
05:05 1024 30.24 854 25.22 18.9 66.1 43 6.2 43.2
05:10 1024 30.24 854 25.22 18.4 65.2 44 6 42.8
05:15 1024 30.24 854 25.22 18.6 65.5 43 5.9 42.6
05:20 1024 30.24 854 25.22 18.6 65.4 42 5.7 42.2
05:25 1024 30.24 854 25.22 18.7 65.7 43 5.9 42.7
05:30 1024 30.24 854 25.22 18.4 65.1 44 6.1 42.9
05:35 1024 30.24 854 25.22 18.3 65 44 6 42.8
05:40 1024 30.24 854 25.22 18.2 64.8 44 6 42.9
05:45 1024 30.24 854 25.22 18.1 64.7 45 6 42.9
05:50 1024 30.24 854 25.22 18.2 64.8 44 6 42.8
05:55 1025 30.27 854 25.22 18.1 64.6 44 5.9 42.6
06:00 1025 30.27 854 25.22 17.7 63.9 45 5.9 42.7
06:05 1025 30.27 854 25.22 17.4 63.4 45 5.6 42.1
06:10 1025 30.27 854 25.22 17.4 63.4 46 5.7 42.2
06:15 1025 30.27 854 25.22 17.3 63.2 46 5.8 42.4
06:20 1025 30.27 854 25.22 17.6 63.7 45 5.6 42.1
06:25 1025 30.27 854 25.22 18 64.4 44 5.8 42.4
06:30 1025 30.27 854 25.22 18.3 64.9 43 5.8 42.4
06:35 1025 30.27 854 25.22 18.4 65.1 44 6 42.7
06:40 1025 30.27 854 25.22 18.4 65.1 45 6.3 43.3
06:45 1025 30.27 854 25.22 18.3 64.9 44 6.1 42.9
06:50 1025 30.27 854 25.22 18.4 65.1 44 6 42.8
06:55 1025 30.27 854 25.22 18.6 65.5 44 6.1 43
07:00 1025 30.27 854 25.22 18.6 65.4 45 6.6 43.9
07:05 1025 30.27 854 25.22 18.8 65.8 42 5.9 42.6
07:10 1025 30.27 854 25.22 19 66.2 44 6.6 43.8
07:15 1025 30.27 854 25.22 19.1 66.4 43 6.4 43.6
07:20 1025 30.27 854 25.22 19.4 66.9 43 6.7 44.1
07:25 1025 30.27 854 25.22 19.4 67 45 7.4 45.3
07:30 1025 30.27 854 25.22 19.4 66.9 45 7.2 45
07:35 1025 30.27 854 25.22 19.7 67.5 43 6.9 44.4
07:40 1025 30.27 854 25.22 20.3 68.5 41 6.6 43.9
07:45 1025 30.27 854 25.22 20.6 69.1 43 7.6 45.6
07:50 1025 30.27 854 25.22 20.8 69.5 41 7.1 44.8
07:55 1025 30.27 854 25.22 21.6 70.8 38 6.7 44
08:00 1025 30.27 854 25.22 21.8 71.3 40 7.8 46.1
08:05 1025 30.27 854 25.22 21.2 70.2 42 8 46.4
08:10 1025 30.27 854 25.22 21.2 70.2 39 6.9 44.5
08:15 1025 30.27 854 25.22 21.5 70.7 41 7.8 46.1
08:20 1025 30.27 854 25.22 21.8 71.2 41 8 46.4
08:25 1025 30.27 854 25.22 22.1 71.8 40 8.1 46.7
08:30 1025 30.27 854 25.22 22 71.6 41 8.5 47.2
08:35 1025 30.27 854 25.22 22 71.7 39 7.7 45.8
08:40 1025 30.27 854 25.22 22.4 72.3 40 8.3 46.9
08:45 1025 30.27 854 25.22 22.5 72.4 42 9 48.3
08:50 1025 30.27 854 25.22 21.5 70.7 42 8.1 46.6
08:55 1025 30.27 854 25.22 21.3 70.4 44 8.7 47.6
09:00 1025 30.27 854 25.22 21.2 70.2 44 8.5 47.3
09:05 1025 30.27 854 25.22 21.2 70.2 46 9.4 49
09:10 1025 30.27 854 25.22 21.9 71.4 42 8.7 47.6
09:15 1025 30.27 854 25.22 22.6 72.7 41 9 48.3
09:20 1025 30.27 854 25.22 23.1 73.5 39 8.5 47.3
09:25 1025 30.27 854 25.22 23.3 73.9 38 8.5 47.3
09:30 1025 30.27 854 25.22 23.9 75 33 7 44.6
09:35 1025 30.27 854 25.22 24.2 75.5 35 7.8 46.1
09:40 1024 30.24 854 25.22 24.7 76.4 33 7.6 45.7
09:45 1024 30.24 854 25.22 24.9 76.9 35 8.6 47.5
09:50 1024 30.24 854 25.22 24.8 76.6 36 8.8 47.8
09:55 1024 30.24 854 25.22 25.5 77.9 33 8.5 47.3
10:00 1024 30.24 854 25.22 26 78.9 30 7.1 44.9
10:05 1024 30.24 854 25.22 26.5 79.8 28 6.9 44.4
10:10 1024 30.24 853 25.19 27.1 80.9 28 7.5 45.5
10:15 1024 30.24 853 25.19 27.4 81.4 29 8.2 46.8
10:20 1024 30.24 853 25.19 27.5 81.5 29 8.2 46.7
10:25 1024 30.24 853 25.19 27.1 80.8 28 7.3 45.1
10:30 1024 30.24 853 25.19 27.4 81.4 29 8.1 46.5
10:35 1024 30.24 853 25.19 27.5 81.6 28 7.8 46
10:40 1024 30.24 853 25.19 28 82.5 28 8.3 46.9
10:45 1024 30.24 853 25.19 28.6 83.4 29 8.9 47.9
10:50 1024 30.24 853 25.19 28.2 82.8 30 9.4 48.9
10:55 1024 30.24 853 25.19 27.9 82.2 32 10 49.9
11:00 1024 30.24 853 25.19 28.3 83 30 9.5 49.1
11:05 1024 30.24 853 25.19 28.3 82.9 31 9.6 49.3
11:10 1024 30.24 853 25.19 28.6 83.4 29 9.3 48.8
11:15 1024 30.24 853 25.19 28.7 83.6 30 9.9 49.8
11:20 1024 30.24 853 25.19 28.5 83.3 29 9.2 48.6
11:25 1024 30.24 853 25.19 28.9 84 29 9.5 49.1
11:30 1024 30.24 853 25.19 29 84.1 28 8.9 48.1
11:35 1024 30.24 853 25.19 28.6 83.5 29 9 48.2
11:40 1024 30.24 853 25.19 29.6 85.3 27 8.9 48
11:45 1024 30.24 853 25.19 30.5 86.9 26 9.1 48.4
11:50 1024 30.24 853 25.19 30.9 87.6 25 8.8 47.8
11:55 1024 30.24 853 25.19 31.2 88.2 25 9.1 48.4
12:00 1024 30.24 853 25.19 30.9 87.6 24 8.3 46.9
12:05 1024 30.24 853 25.19 30.4 86.7 24 8.1 46.7
12:10 1024 30.24 853 25.19 30.6 87.1 24 8.4 47.1
12:15 1024 30.24 853 25.19 30.5 86.8 26 8.9 48.1
12:20 1024 30.24 853 25.19 30.3 86.6 26 9.2 48.6
12:25 1024 30.24 853 25.19 30.2 86.3 27 9.7 49.4
12:30 1024 30.24 853 25.19 30.2 86.3 27 9.6 49.3
12:35 1024 30.24 853 25.19 30.2 86.3 27 9.6 49.3
12:40 1024 30.24 853 25.19 30.1 86.2 29 10.3 50.5
12:45 1024 30.24 853 25.19 29.8 85.7 28 9.7 49.4
12:50 1024 30.24 853 25.19 30.5 86.9 27 9.5 49
12:55 1024 30.24 853 25.19 30.2 86.3 28 9.7 49.5
13:00 1024 30.24 853 25.19 30 86 27 9.2 48.6
13:05 1023 30.21 853 25.19 29.8 85.7 26 8.4 47.1
13:10 1023 30.21 853 25.19 30.4 86.7 25 8.7 47.6
13:15 1023 30.21 853 25.19 31.9 89.5 22 8.2 46.8
13:20 1023 30.21 853 25.19 31.9 89.4 24 9.4 48.9
13:25 1023 30.21 853 25.19 31.7 89 23 8.1 46.5
13:30 1023 30.21 853 25.19 31.7 89.1 22 7.7 45.8
13:35 1023 30.21 852 25.16 31.6 88.9 23 8.4 47.1
13:40 1023 30.21 852 25.16 31.6 88.8 21 7.2 44.9
13:45 1023 30.21 852 25.16 32.8 91.1 20 7.3 45.2
13:50 1023 30.21 852 25.16 33.1 91.5 18 6.2 43.1
13:55 1023 30.21 852 25.16 33 91.3 20 7.4 45.3
14:00 1023 30.21 852 25.16 32.5 90.5 19 6.3 43.4
14:05 1023 30.21 852 25.16 31.1 87.9 21 6.6 43.8
14:10 1023 30.21 852 25.16 31.2 88.1 19 5.6 42
14:15 1023 30.21 852 25.16 30.9 87.6 21 6.2 43.2
14:20 1023 30.21 852 25.16 31 87.8 20 5.9 42.7
14:25 1023 30.21 852 25.16 30.9 87.7 20 6.1 42.9
14:30 1023 30.21 852 25.16 31.4 88.5 20 5.9 42.6
14:35 1023 30.21 852 25.16 31.5 88.7 18 5 40.9
14:40 1023 30.21 852 25.16 31.5 88.8 19 5.1 41.2
14:45 1022 30.18 852 25.16 32.2 90 18 5.3 41.5
14:50 1022 30.18 852 25.16 32.4 90.2 15 3.3 37.9
14:55 1022 30.18 852 25.16 32.2 90 13 0.6 33
15:00 1022 30.18 851 25.13 32.5 90.4 12 -0.6 31
15:05 1022 30.18 851 25.13 33.8 92.8 12 0.6 33
15:10 1022 30.18 851 25.13 33.5 92.3 13 1.7 35.1
15:15 1022 30.18 851 25.13 33.2 91.7 15 3.2 37.8
15:20 1022 30.18 851 25.13 33.2 91.7 14 2.8 37
15:25 1022 30.18 851 25.13 32.7 90.9 14 2.3 36.2
15:30 1022 30.18 851 25.13 32.4 90.2 14 1.5 34.7
15:35 1022 30.18 851 25.13 32.6 90.7 13 0.8 33.4
15:40 1022 30.18 851 25.13 33.2 91.8 13 1.4 34.5
15:45 1022 30.18 851 25.13 33.1 91.7 13 1.7 35
15:50 1022 30.18 851 25.13 33.6 92.4 13 1.5 34.7
15:55 1022 30.18 851 25.13 33.3 92 12 0.6 33.1
16:00 1022 30.18 851 25.13 32.3 90.2 13 0.9 33.6
16:05 1022 30.18 851 25.13 32.7 90.8 13 1.1 33.9
16:10 1022 30.18 851 25.13 32.7 90.9 12 0.4 32.7
16:15 1022 30.18 851 25.13 33.1 91.7 13 1.8 35.2
16:20 1021 30.15 851 25.13 32.7 90.8 13 1.2 34.1
16:25 1021 30.15 851 25.13 32.6 90.7 14 1.6 34.9
16:30 1021 30.15 851 25.13 33.4 92.1 13 1.4 34.6
16:35 1021 30.15 851 25.13 33.5 92.4 13 2.2 36
16:40 1021 30.15 850 25.1 33.5 92.3 12 0.7 33.3
16:45 1021 30.15 850 25.1 33.3 91.9 12 0.9 33.7
16:50 1021 30.15 850 25.1 34.4 93.8 13 2 35.6
16:55 1021 30.15 850 25.1 34.3 93.8 12 1.6 35
17:00 1021 30.15 850 25.1 34.9 94.9 12 1.3 34.4
17:05 1021 30.15 850 25.1 34.3 93.7 12 1.7 35
17:10 1021 30.15 850 25.1 33.8 92.9 12 1.4 34.5
17:15 1021 30.15 850 25.1 33.7 92.6 12 1 33.8
17:20 1021 30.15 850 25.1 33.5 92.3 12 0.8 33.5
17:25 1021 30.15 850 25.1 33.4 92.1 13 1.2 34.2
17:30 1021 30.15 850 25.1 33.4 92.2 12 0.8 33.5
17:35 1021 30.15 850 25.1 34 93.1 13 1.6 34.9
17:40 1021 30.15 850 25.1 33.8 92.8 14 3.3 37.9
17:45 1021 30.15 850 25.1 33 91.4 15 3.8 38.9
17:50 1021 30.15 850 25.1 32.4 90.3 16 3.5 38.3
17:55 1021 30.15 850 25.1 31.7 89.1 19 5.7 42.2
18:00 1021 30.15 850 25.1 31 87.7 18 4.4 39.9
18:05 1021 30.15 850 25.1 30.9 87.6 20 5.4 41.7
18:10 1021 30.15 850 25.1 31.1 88 19 4.9 40.9
18:15 1021 30.15 850 25.1 30.9 87.6 20 5.4 41.8
18:20 1021 30.15 850 25.1 30.6 87.1 20 5.6 42
18:25 1021 30.15 850 25.1 30.2 86.4 20 5.3 41.5
18:30 1021 30.15 850 25.1 30.1 86.2 21 5.6 42
18:35 1020 30.12 850 25.1 30.1 86.1 20 5.2 41.4
18:40 1020 30.12 850 25.1 29.9 85.8 20 4.7 40.5
18:45 1020 30.12 850 25.1 29.9 85.8 20 4.9 40.9
18:50 1020 30.12 850 25.1 30 86 20 5 41
18:55 1020 30.12 850 25.1 29.9 85.7 21 5.5 41.9
19:00 1020 30.12 850 25.1 29.8 85.6 21 5.5 41.9
19:05 1020 30.12 850 25.1 29.8 85.6 21 5.8 42.5
19:10 1020 30.12 850 25.1 30 86 22 6.5 43.6
19:15 1020 30.12 850 25.1 30.1 86.1 22 6.1 43
19:20 1020 30.12 849 25.07 30.1 86.2 21 5.8 42.5
19:25 1020 30.12 849 25.07 29.9 85.8 24 7.8 46
19:30 1020 30.12 849 25.07 29.8 85.6 22 6.3 43.3
19:35 1020 30.12 849 25.07 29.8 85.7 22 6.3 43.4
19:40 1020 30.12 849 25.07 29.9 85.9 22 6 42.8
19:45 1020 30.12 849 25.07 30 86 22 6.4 43.5
19:50 1020 30.12 849 25.07 30 86 22 6.5 43.7
19:55 1020 30.12 849 25.07 30 86.1 23 7.2 45
20:00 1020 30.12 849 25.07 29.8 85.7 26 8.4 47.1
20:05 1020 30.12 849 25.07 29.4 85 26 8.4 47.1
20:10 1020 30.12 849 25.07 29 84.3 25 7.5 45.6
20:15 1020 30.12 849 25.07 28.9 84 26 7.9 46.2
20:20 1020 30.12 849 25.07 28.7 83.7 27 8 46.4
20:25 1020 30.12 849 25.07 28.4 83 26 7.4 45.4
20:30 1020 30.12 849 25.07 28 82.4 27 7.5 45.5
20:35 1020 30.12 849 25.07 27.7 81.8 27 7.3 45.2
20:40 1020 30.12 849 25.07 27.3 81.2 27 7 44.6
20:45 1020 30.12 849 25.07 27.1 80.8 27 6.8 44.2
20:50 1020 30.12 849 25.07 26.9 80.4 26 6.3 43.4
20:55 1020 30.12 849 25.07 26.7 80 26 6.1 42.9
21:00 1020 30.12 849 25.07 26.5 79.6 27 6.1 43
21:05 1020 30.12 849 25.07 26.2 79.1 27 5.9 42.7
21:10 1020 30.12 849 25.07 26 78.7 27 5.9 42.7
21:15 1020 30.12 849 25.07 25.8 78.5 27 5.7 42.3
21:20 1020 30.12 849 25.07 25.7 78.3 28 6 42.8
21:25 1020 30.12 849 25.07 25.6 78 28 6.1 43.1
21:30 1020 30.12 849 25.07 25.4 77.6 28 6 42.8
21:35 1020 30.12 850 25.1 25.1 77.2 29 5.9 42.6
21:40 1020 30.12 850 25.1 25 77 29 5.8 42.5
21:45 1020 30.12 850 25.1 24.9 76.8 29 5.9 42.6
21:50 1021 30.15 850 25.1 24.8 76.6 28 5.4 41.8
21:55 1021 30.15 850 25.1 24.7 76.4 29 5.7 42.2
22:00 1021 30.15 850 25.1 24.6 76.2 29 5.5 41.8
22:05 1021 30.15 850 25.1 24.5 76.2 29 5.4 41.7
22:10 1021 30.15 850 25.1 24.3 75.8 30 6.1 42.9
22:15 1021 30.15 850 25.1 24.1 75.4 31 6 42.9
22:20 1021 30.15 850 25.1 24.2 75.6 31 6.1 42.9
22:25 1021 30.15 850 25.1 24 75.2 33 6.7 44.1
22:30 1021 30.15 850 25.1 23.8 74.9 32 6.5 43.7
22:35 1021 30.15 850 25.1 23.9 74.9 32 6.3 43.4
22:40 1021 30.15 850 25.1 24 75.1 31 6.1 43.1
22:45 1021 30.15 850 25.1 24.1 75.4 31 6.2 43.2
22:50 1021 30.15 850 25.1 24.1 75.4 32 6.5 43.8
22:55 1021 30.15 850 25.1 23.9 75.1 32 6.3 43.3
23:00 1021 30.15 850 25.1 23.9 75 33 6.8 44.2
23:05 1021 30.15 850 25.1 24 75.1 30 5.7 42.3
23:10 1021 30.15 851 25.13 23.9 75.1 31 6.2 43.2
23:15 1021 30.15 851 25.13 23.7 74.6 31 5.6 42.1
23:20 1021 30.15 851 25.13 23.7 74.6 30 5.5 41.8
23:25 1021 30.15 851 25.13 23.7 74.6 32 6.1 43
23:30 1021 30.15 851 25.13 23.3 73.9 34 6.8 44.2
23:35 1021 30.15 851 25.13 22.7 72.9 36 7.2 44.9
23:40 1021 30.15 851 25.13 22.3 72.1 37 7 44.5
23:45 1021 30.15 851 25.13 22.3 72.1 34 5.8 42.5
23:50 1021 30.15 851 25.13 22.2 72 38 7.4 45.3
23:55 1021 30.15 851 25.13 21.7 71.1 37 6.7 44.1
24:00 1021 30.15 851 25.13 21.9 71.4 36 6.2 43.2